SBFZSBTE

Guest
Details From SBFZ - Pinto Martins
To SBTE - Senador Petronio Portella
Flight Number -
Tags generated
Created
Modified
Stats Distance 269 nm / 498 km
Max Altitude 24,500 ft / 7,468 m
Waypoints 4
Social Downloads 0
Likes 0
Share VATSIM

Download

Looking for another format? Having issues loading an existing format? Contact us
Advertisement - Login to hide

Notes

Basic altitude profile: - Ascent Rate: 2500ft/min - Ascent Speed: 250kts - Cruise Altitude: 35000ft - Cruise Speed: 420kts - Descent Rate: 1500ft/min - Descent Speed: 250kts

Route

SBFZ FLZ UW44 TRS SBTE

ID Type Via Altitude Latitude Longitude Leg Dist Tot Dist Heading (true) Name
O SBFZ APT - 0 ft / 0 m -3.77628˚ -38.53256˚ - 0 nm - Pinto Martins
FLZ VOR - 300 ft / 91 m -3.77227˚ -38.54769˚ 0 nm 0 nm 285° / 285° FORTALEZA VOR-DME
TRS VOR UW44 (AWY-HI) 24,500 ft / 7,468 m -5.06618˚ -42.82489˚ 267 nm 268 nm 253° / 253° TERESINA VOR-DME
O SBTE APT - 0 ft / 0 m -5.05994˚ -42.82348˚ 0 nm 268 nm 13° / 13° Senador Petronio Portella

Altitude Profile

Advertisement - Login to hide

Weather


0- 5 10 15 20 25 30 35+ Temperature / ° C

Clouds and Precipitation
Forecast for 2017-12-11 18:00 UTC. Updated 2 hours ago

Ground ~20,000 ft ~40,000 ft Winds

SBFZ

Details ICAO SBFZ (FOR)
Name Pinto Martins
Region Brazil
Timezone America/Fortaleza (UTC-3.0)
Stats Elevation 82 ft / 25 m (AMSL)
Location -3.776283° -38.532556°
Runways 1
Magnetic Variation 21.126° W

METAR

SBFZ 111700Z 07012KT 9999 FEW030 31/22 Q1010

Decode

TAF

TAF SBFZ 111000Z 1112/1212 08011KT 9999 SCT020 TX31/1114Z TN26/1208Z BECMG 1114/1116 SCT030 BECMG 1121/1122 07007KT BECMG 1209/1211 08012KT BKN020 RMK PEU

Decode

Departure Runways

ID Width Length Bearing (true) Bearing (mag) Surface Threshold Offset Overrun Length
13 148 ft / 45 m 8,360 ft / 2,548 m 104.88° 126.01° Asphalt 0 ft / 0 m 195 ft / 59 m
31 148 ft / 45 m 8,360 ft / 2,548 m 284.88° 306.01° Asphalt 0 ft / 0 m 125 ft / 38 m

SBTE

Details ICAO SBTE (THE)
Name Senador Petronio Portella
Region Brazil
Timezone America/Fortaleza (UTC-3.0)
Stats Elevation 219 ft / 67 m (AMSL)
Location -5.059940° -42.823478°
Runways 1
Magnetic Variation 21.543° W

METAR

SBTE 111700Z 14004KT 9999 FEW030 BKN100 35/18 Q1008

Decode

TAF

TAF SBTE 111000Z 1112/1124 34007KT 9999 SCT030 TN30/1112Z TX35/1118Z RMK PEU

Decode

Destination Runways

ID Width Length Bearing (true) Bearing (mag) Surface Threshold Offset Overrun Length
02 148 ft / 45 m 7,246 ft / 2,209 m 354.11° 15.65° Asphalt 0 ft / 0 m 190 ft / 58 m
20 148 ft / 45 m 7,246 ft / 2,209 m 174.12° 195.66° Asphalt 0 ft / 0 m 190 ft / 58 m

Popular Alternatives